Wednesday, August 15, 2018, 11:59 PM EDT
Back to Local

KPKB, Mid-ohio Valley Rgnl Airport

Location: Parkersburg, WV, United States Lat: 39.333
Local Time: 11:59 PM EDT ( 3:59 GMT) Lon: -81.45
Time Zone: US/Eastern Elev: 859 ft

Show me the last for .
Show Decoded

2018-08-15 22:53 METAR KPKB 160253Z 16003KT 10SM SCT090 23/21 A3011 RMK AO2 SLP189 T02330206
                 53006 $ =
2018-08-15 21:53 METAR KPKB 160153Z 00000KT 7SM CLR 23/21 A3010 RMK AO2 SLP187 T02330211 $ =
2018-08-15 20:53 METAR KPKB 160053Z 00000KT 9SM CLR 24/22 A3009 RMK AO2 SLP183 T02440217 $ =
2018-08-15 19:53 METAR KPKB 152353Z 00000KT 10SM CLR 27/20 A3009 RMK AO2 SLP183 T02670200 10300
                 20261 56001 $ =
2018-08-15 18:53 METAR KPKB 152253Z 26003KT 10SM CLR 28/19 A3009 RMK AO2 SLP183 T02830189 $ =
2018-08-15 17:53 METAR KPKB 152153Z 27005KT 10SM CLR 28/18 A3009 RMK AO2 SLP182 T02830183 $ =
2018-08-15 16:53 METAR KPKB 152053Z 24005KT 10SM SCT045 SCT060 SCT070 30/19 A3009 RMK AO2 SLP182
                 T03000194 56008 $ =
2018-08-15 15:53 METAR KPKB 151953Z 27007KT 10SM CLR 29/18 A3010 RMK AO2 SLP186 T02940178 $ =
2018-08-15 14:53 METAR KPKB 151853Z 24006KT 10SM CLR 29/19 A3011 RMK AO2 SLP188 T02940189 $ =
2018-08-15 13:53 METAR KPKB 151753Z 27005KT 10SM SCT042 BKN055 29/18 A3012 RMK AO2 SLP191
                 T02890183 10294 20183 58007 $ =
2018-08-15 12:53 METAR KPKB 151653Z 19006KT 10SM CLR 28/19 A3013 RMK AO2 SLP194 T02780189 $ =
2018-08-15 11:53 METAR KPKB 151553Z 19004KT 10SM CLR 27/19 A3013 RMK AO2 SLP196 T02670194 $ =
2018-08-15 10:53 METAR KPKB 151453Z 00000KT 10SM CLR 24/19 A3014 RMK AO2 SLP198 T02440189 51008 $
                 =
2018-08-15 09:53 METAR KPKB 151353Z 21004KT 10SM CLR 22/19 A3014 RMK AO2 SLP199 T02220189 =
2018-08-15 08:53 METAR KPKB 151253Z 00000KT 10SM CLR 19/18 A3012 RMK AO2 SLP195 T01940178 =
2018-08-15 07:53 METAR KPKB 151153Z 00000KT 9SM CLR 18/17 A3011 RMK AO2 SLP191 T01830172 10189
                 20172 53013 =
2018-08-15 06:53 METAR KPKB 151053Z 00000KT 8SM CLR 17/16 A3010 RMK AO2 SLP186 T01720161 =
2018-08-15 05:53 METAR KPKB 150953Z AUTO 00000KT 10SM CLR 18/16 A3008 RMK AO2 SLP179 T01780161 =
2018-08-15 04:53 METAR KPKB 150853Z AUTO 00000KT 10SM CLR 18/17 A3007 RMK AO2 SLP176 T01830167
                 55000 =
2018-08-15 03:53 METAR KPKB 150753Z AUTO 00000KT 10SM CLR 18/17 A3007 RMK AO2 SLP175 T01780167 =
2018-08-15 02:53 METAR KPKB 150653Z AUTO 00000KT 7SM CLR 18/17 A3006 RMK AO2 SLP172 T01830172 =
2018-08-15 01:53 METAR KPKB 150553Z AUTO 00000KT 10SM CLR 19/18 A3007 RMK AO2 SLP176 T01890178
                 10250 20189 50003 =
2018-08-15 00:53 METAR KPKB 150453Z AUTO 00000KT 10SM CLR 20/18 A3008 RMK AO2 SLP178 T02000178
                 402890161 =

Support USWX by starting your Amazon purchase here.